sensor_id;sensor_type;location;lat;lon;timestamp;pressure;altitude;pressure_sealevel;temperature;humidity
15229;BME280;7717;47.792;12.076;2023-03-31T00:00:39;95846.09;;;8.60;100.00
15229;BME280;7717;47.792;12.076;2023-03-31T00:03:05;95852.06;;;8.58;100.00
15229;BME280;7717;47.792;12.076;2023-03-31T00:05:38;95844.41;;;8.56;100.00
15229;BME280;7717;47.792;12.076;2023-03-31T00:08:04;95843.56;;;8.53;100.00
15229;BME280;7717;47.792;12.076;2023-03-31T00:10:32;95841.88;;;8.52;100.00
15229;BME280;7717;47.792;12.076;2023-03-31T00:13:00;95831.72;;;8.45;100.00
15229;BME280;7717;47.792;12.076;2023-03-31T00:15:26;95835.09;;;8.48;100.00
15229;BME280;7717;47.792;12.076;2023-03-31T00:17:52;95833.38;;;8.54;100.00
15229;BME280;7717;47.792;12.076;2023-03-31T00:20:18;95818.91;;;8.56;100.00
15229;BME280;7717;47.792;12.076;2023-03-31T00:22:44;95817.22;;;8.37;100.00
15229;BME280;7717;47.792;12.076;2023-03-31T00:25:13;95808.75;;;8.32;100.00
15229;BME280;7717;47.792;12.076;2023-03-31T00:27:43;95818.06;;;8.39;100.00
15229;BME280;7717;47.792;12.076;2023-03-31T00:30:10;95796.84;;;8.24;100.00
15229;BME280;7717;47.792;12.076;2023-03-31T00:32:36;95802.75;;;8.42;100.00
15229;BME280;7717;47.792;12.076;2023-03-31T00:35:02;95794.28;;;8.46;100.00
15229;BME280;7717;47.792;12.076;2023-03-31T00:37:28;95788.31;;;8.52;100.00
15229;BME280;7717;47.792;12.076;2023-03-31T00:39:54;95790.00;;;8.54;100.00
15229;BME280;7717;47.792;12.076;2023-03-31T00:42:21;95774.66;;;8.63;100.00
15229;BME280;7717;47.792;12.076;2023-03-31T00:50:31;95752.47;;;8.81;100.00
15229;BME280;7717;47.792;12.076;2023-03-31T00:53:01;95752.50;;;8.78;100.00
15229;BME280;7717;47.792;12.076;2023-03-31T00:55:34;95747.34;;;8.87;100.00
15229;BME280;7717;47.792;12.076;2023-03-31T00:58:00;95735.50;;;8.80;100.00
15229;BME280;7717;47.792;12.076;2023-03-31T01:00:28;95738.00;;;8.86;100.00
15229;BME280;7717;47.792;12.076;2023-03-31T01:02:57;95737.16;;;8.84;100.00
15229;BME280;7717;47.792;12.076;2023-03-31T01:05:31;95737.13;;;8.87;100.00
15229;BME280;7717;47.792;12.076;2023-03-31T01:07:59;95726.88;;;8.96;100.00
15229;BME280;7717;47.792;12.076;2023-03-31T01:10:26;95729.47;;;8.89;100.00
15229;BME280;7717;47.792;12.076;2023-03-31T01:12:53;95721.00;;;8.87;100.00
15229;BME280;7717;47.792;12.076;2023-03-31T01:15:20;95715.81;;;8.97;100.00
15229;BME280;7717;47.792;12.076;2023-03-31T01:17:46;95713.34;;;8.85;100.00
15229;BME280;7717;47.792;12.076;2023-03-31T01:23:32;95716.63;;;9.06;100.00
15229;BME280;7717;47.792;12.076;2023-03-31T01:27:00;95715.81;;;8.97;100.00
15229;BME280;7717;47.792;12.076;2023-03-31T01:46:00;95704.06;;;8.69;100.00
15229;BME280;7717;47.792;12.076;2023-03-31T01:49:00;95709.16;;;8.72;100.00
15229;BME280;7717;47.792;12.076;2023-03-31T01:51:31;95708.34;;;8.63;100.00
15229;BME280;7717;47.792;12.076;2023-03-31T01:54:14;95693.91;;;8.58;100.00
15229;BME280;7717;47.792;12.076;2023-03-31T01:57:16;95693.03;;;8.67;100.00
15229;BME280;7717;47.792;12.076;2023-03-31T01:59:59;95684.53;;;8.66;100.00
15229;BME280;7717;47.792;12.076;2023-03-31T02:02:31;95680.25;;;8.70;100.00
15229;BME280;7717;47.792;12.076;2023-03-31T02:05:17;95671.75;;;8.69;100.00
15229;BME280;7717;47.792;12.076;2023-03-31T02:07:51;95671.72;;;8.75;100.00
15229;BME280;7717;47.792;12.076;2023-03-31T02:10:19;95670.91;;;8.67;100.00
15229;BME280;7717;47.792;12.076;2023-03-31T02:12:46;95665.81;;;8.64;100.00
15229;BME280;7717;47.792;12.076;2023-03-31T02:15:19;95657.25;;;8.76;100.00
15229;BME280;7717;47.792;12.076;2023-03-31T02:17:48;95659.03;;;8.64;100.00
15229;BME280;7717;47.792;12.076;2023-03-31T02:20:18;95648.72;;;8.80;100.00
15229;BME280;7717;47.792;12.076;2023-03-31T02:22:47;95631.75;;;8.73;100.00
15229;BME280;7717;47.792;12.076;2023-03-31T02:25:18;95651.31;;;8.75;100.00
15229;BME280;7717;47.792;12.076;2023-03-31T02:27:50;95641.94;;;8.79;100.00
15229;BME280;7717;47.792;12.076;2023-03-31T02:30:18;95629.25;;;8.65;100.00
15229;BME280;7717;47.792;12.076;2023-03-31T02:32:43;95634.31;;;8.71;100.00
15229;BME280;7717;47.792;12.076;2023-03-31T02:35:18;95615.53;;;8.85;100.00
15229;BME280;7717;47.792;12.076;2023-03-31T02:37:45;95612.19;;;8.73;100.00
15229;BME280;7717;47.792;12.076;2023-03-31T02:40:20;95612.16;;;8.75;100.00
15229;BME280;7717;47.792;12.076;2023-03-31T02:42:47;95602.00;;;8.70;100.00
15229;BME280;7717;47.792;12.076;2023-03-31T02:47:59;95595.22;;;8.68;100.00
15229;BME280;7717;47.792;12.076;2023-03-31T02:50:29;95600.38;;;8.58;100.00
15229;BME280;7717;47.792;12.076;2023-03-31T02:53:08;95597.81;;;8.64;100.00
15229;BME280;7717;47.792;12.076;2023-03-31T02:55:54;95605.41;;;8.71;100.00
15229;BME280;7717;47.792;12.076;2023-03-31T03:01:22;95593.41;;;8.82;100.00
15229;BME280;7717;47.792;12.076;2023-03-31T03:04:10;95590.91;;;8.77;100.00
15229;BME280;7717;47.792;12.076;2023-03-31T03:06:54;95592.63;;;8.77;100.00
15229;BME280;7717;47.792;12.076;2023-03-31T03:09:46;95597.69;;;8.80;100.00
15229;BME280;7717;47.792;12.076;2023-03-31T03:12:23;95600.28;;;8.75;100.00
15229;BME280;7717;47.792;12.076;2023-03-31T03:14:59;95604.53;;;8.72;100.00
15229;BME280;7717;47.792;12.076;2023-03-31T03:17:38;95593.44;;;8.80;100.00
15229;BME280;7717;47.792;12.076;2023-03-31T03:20:05;95601.16;;;8.71;100.00
15229;BME280;7717;47.792;12.076;2023-03-31T03:22:38;95615.59;;;8.77;100.00
15229;BME280;7717;47.792;12.076;2023-03-31T03:25:04;95613.09;;;8.64;100.00
15229;BME280;7717;47.792;12.076;2023-03-31T03:27:30;95615.63;;;8.71;100.00
15229;BME280;7717;47.792;12.076;2023-03-31T03:29:57;95611.38;;;8.65;100.00
15229;BME280;7717;47.792;12.076;2023-03-31T03:32:22;95614.72;;;8.73;100.00
15229;BME280;7717;47.792;12.076;2023-03-31T03:34:47;95596.94;;;8.61;100.00
15229;BME280;7717;47.792;12.076;2023-03-31T03:37:13;95607.09;;;8.69;100.00
15229;BME280;7717;47.792;12.076;2023-03-31T03:39:38;95613.06;;;8.71;100.00
15229;BME280;7717;47.792;12.076;2023-03-31T03:42:04;95608.81;;;8.68;100.00
15229;BME280;7717;47.792;12.076;2023-03-31T03:44:30;95593.47;;;8.74;100.00
15229;BME280;7717;47.792;12.076;2023-03-31T03:46:55;95586.75;;;8.58;100.00
15229;BME280;7717;47.792;12.076;2023-03-31T03:49:21;95585.13;;;8.54;100.00
15229;BME280;7717;47.792;12.076;2023-03-31T03:51:46;95582.59;;;8.46;100.00
15229;BME280;7717;47.792;12.076;2023-03-31T03:54:11;95573.16;;;8.59;100.00
15229;BME280;7717;47.792;12.076;2023-03-31T03:56:37;95574.13;;;8.44;100.00
15229;BME280;7717;47.792;12.076;2023-03-31T03:59:02;95579.25;;;8.35;100.00
15229;BME280;7717;47.792;12.076;2023-03-31T04:01:28;95586.00;;;8.45;100.00
15229;BME280;7717;47.792;12.076;2023-03-31T04:03:54;95595.38;;;8.38;100.00
15229;BME280;7717;47.792;12.076;2023-03-31T04:06:19;95595.38;;;8.38;100.00
15229;BME280;7717;47.792;12.076;2023-03-31T04:08:45;95588.56;;;8.43;100.00
15229;BME280;7717;47.792;12.076;2023-03-31T04:11:15;95589.44;;;8.38;100.00
15229;BME280;7717;47.792;12.076;2023-03-31T04:13:42;95584.34;;;8.44;100.00
15229;BME280;7717;47.792;12.076;2023-03-31T04:16:08;95577.50;;;8.41;100.00
15229;BME280;7717;47.792;12.076;2023-03-31T04:18:33;95567.28;;;8.52;100.00
15229;BME280;7717;47.792;12.076;2023-03-31T04:21:02;95572.38;;;8.52;100.00
15229;BME280;7717;47.792;12.076;2023-03-31T04:23:34;95577.50;;;8.43;100.00
15229;BME280;7717;47.792;12.076;2023-03-31T04:26:03;95567.16;;;8.71;100.00
15229;BME280;7717;47.792;12.076;2023-03-31T04:28:33;95565.47;;;8.63;100.00
15229;BME280;7717;47.792;12.076;2023-03-31T04:31:00;95554.56;;;8.44;100.00
15229;BME280;7717;47.792;12.076;2023-03-31T04:33:27;95548.59;;;8.47;100.00
15229;BME280;7717;47.792;12.076;2023-03-31T04:35:52;95533.31;;;8.47;100.00
15229;BME280;7717;47.792;12.076;2023-03-31T04:38:20;95518.00;;;8.42;100.00
15229;BME280;7717;47.792;12.076;2023-03-31T04:40:48;95502.72;;;8.44;100.00
15229;BME280;7717;47.792;12.076;2023-03-31T04:43:14;95492.50;;;8.41;100.00
15229;BME280;7717;47.792;12.076;2023-03-31T04:45:40;95484.91;;;8.36;100.00
15229;BME280;7717;47.792;12.076;2023-03-31T04:48:06;95475.56;;;8.32;100.00
15229;BME280;7717;47.792;12.076;2023-03-31T04:50:32;95471.31;;;8.33;100.00
15229;BME280;7717;47.792;12.076;2023-03-31T04:52:58;95456.06;;;8.22;100.00
15229;BME280;7717;47.792;12.076;2023-03-31T04:55:23;95464.47;;;8.38;100.00
15229;BME280;7717;47.792;12.076;2023-03-31T04:57:49;95453.38;;;8.42;100.00
15229;BME280;7717;47.792;12.076;2023-03-31T05:00:16;95439.75;;;8.52;100.00
15229;BME280;7717;47.792;12.076;2023-03-31T05:02:41;95435.50;;;8.50;100.00
15229;BME280;7717;47.792;12.076;2023-03-31T05:05:11;95441.53;;;8.39;100.00
15229;BME280;7717;47.792;12.076;2023-03-31T05:07:37;95428.88;;;8.25;100.00
15229;BME280;7717;47.792;12.076;2023-03-31T05:10:03;95429.63;;;8.37;100.00
15229;BME280;7717;47.792;12.076;2023-03-31T05:12:29;95437.25;;;8.40;100.00
15229;BME280;7717;47.792;12.076;2023-03-31T05:14:54;95439.09;;;8.22;100.00
15229;BME280;7717;47.792;12.076;2023-03-31T05:17:19;95444.25;;;8.15;100.00
15229;BME280;7717;47.792;12.076;2023-03-31T05:19:45;95440.81;;;8.16;100.00
15229;BME280;7717;47.792;12.076;2023-03-31T05:22:10;95438.34;;;8.09;100.00
15229;BME280;7717;47.792;12.076;2023-03-31T05:24:36;95428.13;;;8.11;100.00
15229;BME280;7717;47.792;12.076;2023-03-31T05:27:01;95417.06;;;8.14;100.00
15229;BME280;7717;47.792;12.076;2023-03-31T05:29:27;95419.38;;;8.43;100.00
15229;BME280;7717;47.792;12.076;2023-03-31T05:31:52;95403.06;;;8.64;100.00
15229;BME280;7717;47.792;12.076;2023-03-31T05:34:18;95406.44;;;8.69;100.00
15229;BME280;7717;47.792;12.076;2023-03-31T05:36:44;95391.78;;;8.88;100.00
15229;BME280;7717;47.792;12.076;2023-03-31T05:39:12;95388.56;;;8.69;100.00
15229;BME280;7717;47.792;12.076;2023-03-31T05:41:38;95377.44;;;8.73;100.00
15229;BME280;7717;47.792;12.076;2023-03-31T05:44:03;95372.16;;;8.90;100.00
15229;BME280;7717;47.792;12.076;2023-03-31T05:46:28;95359.44;;;8.87;100.00
15229;BME280;7717;47.792;12.076;2023-03-31T05:48:54;95359.53;;;8.78;100.00
15229;BME280;7717;47.792;12.076;2023-03-31T05:51:20;95342.72;;;8.61;100.00
15229;BME280;7717;47.792;12.076;2023-03-31T05:53:46;95337.72;;;8.52;100.00
15229;BME280;7717;47.792;12.076;2023-03-31T05:56:11;95332.78;;;8.34;100.00
15229;BME280;7717;47.792;12.076;2023-03-31T05:58:37;95329.38;;;8.35;100.00
15229;BME280;7717;47.792;12.076;2023-03-31T06:01:11;95331.03;;;8.37;100.00
15229;BME280;7717;47.792;12.076;2023-03-31T06:03:39;95309.06;;;8.27;100.00
15229;BME280;7717;47.792;12.076;2023-03-31T06:06:08;95300.53;;;8.26;100.00
15229;BME280;7717;47.792;12.076;2023-03-31T06:08:35;95274.03;;;8.44;100.00
15229;BME280;7717;47.792;12.076;2023-03-31T06:11:06;95273.81;;;8.64;100.00
15229;BME280;7717;47.792;12.076;2023-03-31T06:13:36;95259.38;;;8.63;100.00
15229;BME280;7717;47.792;12.076;2023-03-31T06:16:01;95231.47;;;8.51;100.00
15229;BME280;7717;47.792;12.076;2023-03-31T06:18:28;95226.47;;;8.39;100.00
15229;BME280;7717;47.792;12.076;2023-03-31T06:20:55;95224.78;;;8.41;100.00
15229;BME280;7717;47.792;12.076;2023-03-31T06:23:21;95231.28;;;8.67;100.00
15229;BME280;7717;47.792;12.076;2023-03-31T06:25:47;95238.44;;;9.04;100.00
15229;BME280;7717;47.792;12.076;2023-03-31T06:28:12;95217.13;;;9.62;100.00
15229;BME280;7717;47.792;12.076;2023-03-31T06:30:38;95207.69;;;9.67;100.00
15229;BME280;7717;47.792;12.076;2023-03-31T06:33:03;95195.66;;;9.72;100.00
15229;BME280;7717;47.792;12.076;2023-03-31T06:35:29;95205.75;;;9.80;100.00
15229;BME280;7717;47.792;12.076;2023-03-31T06:37:54;95181.56;;;9.50;100.00
15229;BME280;7717;47.792;12.076;2023-03-31T06:40:20;95175.13;;;9.27;100.00
15229;BME280;7717;47.792;12.076;2023-03-31T06:42:45;95177.56;;;9.35;100.00
15229;BME280;7717;47.792;12.076;2023-03-31T06:45:10;95170.00;;;9.29;100.00
15229;BME280;7717;47.792;12.076;2023-03-31T06:47:36;95164.34;;;9.10;100.00
15229;BME280;7717;47.792;12.076;2023-03-31T06:50:07;95153.81;;;9.30;100.00
15229;BME280;7717;47.792;12.076;2023-03-31T06:52:33;95140.50;;;9.09;100.00
15229;BME280;7717;47.792;12.076;2023-03-31T06:54:58;95140.84;;;8.89;100.00
15229;BME280;7717;47.792;12.076;2023-03-31T06:57:25;95145.06;;;8.90;100.00
15229;BME280;7717;47.792;12.076;2023-03-31T06:59:50;95134.34;;;8.67;100.00
15229;BME280;7717;47.792;12.076;2023-03-31T07:02:16;95143.53;;;8.80;100.00
15229;BME280;7717;47.792;12.076;2023-03-31T07:04:41;95130.69;;;8.85;100.00
15229;BME280;7717;47.792;12.076;2023-03-31T07:07:08;95124.69;;;8.87;100.00
15229;BME280;7717;47.792;12.076;2023-03-31T07:09:33;95115.97;;;9.00;100.00
15229;BME280;7717;47.792;12.076;2023-03-31T07:11:58;95114.81;;;9.20;100.00
15229;BME280;7717;47.792;12.076;2023-03-31T07:14:24;95108.53;;;9.40;100.00
15229;BME280;7717;47.792;12.076;2023-03-31T07:16:49;95114.09;;;9.62;100.00
15229;BME280;7717;47.792;12.076;2023-03-31T07:19:16;95108.75;;;9.74;100.00
15229;BME280;7717;47.792;12.076;2023-03-31T07:21:41;95099.50;;;9.68;100.00
15229;BME280;7717;47.792;12.076;2023-03-31T07:24:07;95119.50;;;9.45;100.00
15229;BME280;7717;47.792;12.076;2023-03-31T07:26:32;95115.09;;;9.53;100.00
15229;BME280;7717;47.792;12.076;2023-03-31T07:28:57;95116.94;;;9.45;100.00
15229;BME280;7717;47.792;12.076;2023-03-31T07:31:23;95104.13;;;9.48;100.00
15229;BME280;7717;47.792;12.076;2023-03-31T07:33:49;95087.72;;;9.61;100.00
15229;BME280;7717;47.792;12.076;2023-03-31T07:36:14;95084.19;;;9.67;100.00
15229;BME280;7717;47.792;12.076;2023-03-31T07:38:41;95090.97;;;9.69;100.00
15229;BME280;7717;47.792;12.076;2023-03-31T07:41:16;95088.56;;;9.62;100.00
15229;BME280;7717;47.792;12.076;2023-03-31T07:43:42;95086.81;;;9.64;100.00
15229;BME280;7717;47.792;12.076;2023-03-31T07:46:22;95090.00;;;9.73;100.00
15229;BME280;7717;47.792;12.076;2023-03-31T07:48:49;95114.81;;;9.68;100.00
15229;BME280;7717;47.792;12.076;2023-03-31T07:51:16;95140.91;;;9.84;100.00
15229;BME280;7717;47.792;12.076;2023-03-31T07:53:42;95157.97;;;9.84;100.00
15229;BME280;7717;47.792;12.076;2023-03-31T07:56:08;95185.94;;;9.93;100.00
15229;BME280;7717;47.792;12.076;2023-03-31T07:58:33;95197.03;;;9.90;100.00
15229;BME280;7717;47.792;12.076;2023-03-31T08:00:59;95220.91;;;9.91;100.00
15229;BME280;7717;47.792;12.076;2023-03-31T08:03:25;95225.72;;;9.58;100.00
15229;BME280;7717;47.792;12.076;2023-03-31T08:05:51;95266.66;;;9.55;100.00
15229;BME280;7717;47.792;12.076;2023-03-31T08:08:16;95259.84;;;9.54;100.00
15229;BME280;7717;47.792;12.076;2023-03-31T08:10:42;95268.34;;;9.53;100.00
15229;BME280;7717;47.792;12.076;2023-03-31T08:13:07;95247.41;;;9.31;100.00
15229;BME280;7717;47.792;12.076;2023-03-31T08:15:33;95263.66;;;9.27;100.00
15229;BME280;7717;47.792;12.076;2023-03-31T08:17:58;95263.06;;;9.06;100.00
15229;BME280;7717;47.792;12.076;2023-03-31T08:20:23;95252.13;;;8.99;100.00
15229;BME280;7717;47.792;12.076;2023-03-31T08:22:49;95239.28;;;9.04;100.00
15229;BME280;7717;47.792;12.076;2023-03-31T08:25:14;95241.97;;;9.52;100.00
15229;BME280;7717;47.792;12.076;2023-03-31T08:27:40;95214.38;;;9.75;100.00
15229;BME280;7717;47.792;12.076;2023-03-31T08:30:09;95210.69;;;9.91;100.00
15229;BME280;7717;47.792;12.076;2023-03-31T08:32:35;95210.63;;;9.94;100.00
15229;BME280;7717;47.792;12.076;2023-03-31T08:35:01;95202.22;;;9.87;100.00
15229;BME280;7717;47.792;12.076;2023-03-31T08:37:27;95193.56;;;9.95;100.00
15229;BME280;7717;47.792;12.076;2023-03-31T08:39:53;95169.47;;;10.08;100.00
15229;BME280;7717;47.792;12.076;2023-03-31T08:42:27;95161.34;;;10.30;100.00
15229;BME280;7717;47.792;12.076;2023-03-31T08:45:09;95165.28;;;10.49;100.00
15229;BME280;7717;47.792;12.076;2023-03-31T08:47:37;95176.59;;;10.37;100.00
15229;BME280;7717;47.792;12.076;2023-03-31T08:50:11;95186.69;;;10.43;100.00
15229;BME280;7717;47.792;12.076;2023-03-31T08:52:44;95196.22;;;9.88;100.00
15229;BME280;7717;47.792;12.076;2023-03-31T08:55:18;95204.84;;;9.83;100.00
15229;BME280;7717;47.792;12.076;2023-03-31T08:58:10;95186.50;;;10.53;100.00
15229;BME280;7717;47.792;12.076;2023-03-31T09:00:50;95214.88;;;10.83;100.00
15229;BME280;7717;47.792;12.076;2023-03-31T09:03:41;95190.38;;;11.11;100.00
15229;BME280;7717;47.792;12.076;2023-03-31T09:06:15;95189.56;;;11.45;100.00
15229;BME280;7717;47.792;12.076;2023-03-31T09:08:44;95197.50;;;11.34;100.00
15229;BME280;7717;47.792;12.076;2023-03-31T09:11:22;95196.66;;;11.35;100.00
15229;BME280;7717;47.792;12.076;2023-03-31T09:13:58;95201.63;;;10.65;100.00
15229;BME280;7717;47.792;12.076;2023-03-31T09:16:31;95218.47;;;10.32;100.00
15229;BME280;7717;47.792;12.076;2023-03-31T09:19:00;95195.63;;;10.22;100.00
15229;BME280;7717;47.792;12.076;2023-03-31T09:21:30;95217.44;;;10.40;100.00
15229;BME280;7717;47.792;12.076;2023-03-31T09:24:19;95208.50;;;10.63;100.00
15229;BME280;7717;47.792;12.076;2023-03-31T09:26:52;95183.97;;;11.29;100.00
15229;BME280;7717;47.792;12.076;2023-03-31T09:29:21;95197.97;;;11.16;100.00
15229;BME280;7717;47.792;12.076;2023-03-31T09:31:49;95186.88;;;11.14;100.00
15229;BME280;7717;47.792;12.076;2023-03-31T09:34:18;95164.88;;;11.43;100.00
15229;BME280;7717;47.792;12.076;2023-03-31T09:36:46;95136.31;;;11.93;100.00
15229;BME280;7717;47.792;12.076;2023-03-31T09:39:13;95138.09;;;12.52;100.00
15229;BME280;7717;47.792;12.076;2023-03-31T09:41:46;95128.72;;;12.79;100.00
15229;BME280;7717;47.792;12.076;2023-03-31T09:44:25;95117.00;;;12.97;100.00
15229;BME280;7717;47.792;12.076;2023-03-31T09:46:53;95099.78;;;13.27;100.00
15229;BME280;7717;47.792;12.076;2023-03-31T09:49:26;95097.81;;;13.62;100.00
15229;BME280;7717;47.792;12.076;2023-03-31T09:54:38;95103.44;;;13.74;100.00
15229;BME280;7717;47.792;12.076;2023-03-31T09:57:13;95107.88;;;13.68;100.00
15229;BME280;7717;47.792;12.076;2023-03-31T09:59:39;95117.44;;;13.65;100.00
15229;BME280;7717;47.792;12.076;2023-03-31T10:04:58;95103.88;;;13.35;100.00
15229;BME280;7717;47.792;12.076;2023-03-31T10:07:23;95088.22;;;13.41;100.00
15229;BME280;7717;47.792;12.076;2023-03-31T10:09:51;95096.91;;;13.63;100.00
15229;BME280;7717;47.792;12.076;2023-03-31T10:12:20;95070.31;;;13.64;100.00
15229;BME280;7717;47.792;12.076;2023-03-31T10:14:50;95072.28;;;13.56;100.00
15229;BME280;7717;47.792;12.076;2023-03-31T10:17:21;95066.59;;;13.97;100.00
15229;BME280;7717;47.792;12.076;2023-03-31T10:19:57;95043.56;;;14.17;100.00
15229;BME280;7717;47.792;12.076;2023-03-31T10:24:52;95048.34;;;13.79;100.00
15229;BME280;7717;47.792;12.076;2023-03-31T10:27:29;95054.13;;;13.86;100.00
15229;BME280;7717;47.792;12.076;2023-03-31T10:29:57;95050.78;;;13.84;100.00
15229;BME280;7717;47.792;12.076;2023-03-31T10:32:34;95042.28;;;13.82;100.00
15229;BME280;7717;47.792;12.076;2023-03-31T10:35:06;95046.06;;;13.72;100.00
15229;BME280;7717;47.792;12.076;2023-03-31T10:37:34;95042.22;;;13.83;100.00
15229;BME280;7717;47.792;12.076;2023-03-31T10:40:03;95047.91;;;13.92;100.00
15229;BME280;7717;47.792;12.076;2023-03-31T10:42:30;95034.00;;;13.74;100.00
15229;BME280;7717;47.792;12.076;2023-03-31T10:45:26;95013.97;;;13.58;100.00
15229;BME280;7717;47.792;12.076;2023-03-31T10:47:55;95010.53;;;13.32;100.00
15229;BME280;7717;47.792;12.076;2023-03-31T10:50:32;95021.16;;;12.96;100.00
15229;BME280;7717;47.792;12.076;2023-03-31T10:53:05;95029.75;;;12.95;100.00
15229;BME280;7717;47.792;12.076;2023-03-31T11:04:51;95000.66;;;12.68;100.00
15229;BME280;7717;47.792;12.076;2023-03-31T11:13:12;94970.59;;;13.49;100.00
15229;BME280;7717;47.792;12.076;2023-03-31T11:18:31;94958.13;;;13.62;100.00
15229;BME280;7717;47.792;12.076;2023-03-31T11:21:22;94928.78;;;13.91;100.00
15229;BME280;7717;47.792;12.076;2023-03-31T11:24:00;94901.66;;;14.49;100.00
15229;BME280;7717;47.792;12.076;2023-03-31T11:32:04;94849.84;;;16.12;94.25
15229;BME280;7717;47.792;12.076;2023-03-31T11:40:55;94821.16;;;15.81;90.48
15229;BME280;7717;47.792;12.076;2023-03-31T11:43:28;94872.66;;;15.64;94.04
15229;BME280;7717;47.792;12.076;2023-03-31T11:46:02;94882.19;;;15.24;96.54
15229;BME280;7717;47.792;12.076;2023-03-31T11:48:36;94894.78;;;14.90;97.91
15229;BME280;7717;47.792;12.076;2023-03-31T11:51:06;94937.13;;;14.85;100.00
15229;BME280;7717;47.792;12.076;2023-03-31T11:53:37;94958.59;;;14.63;100.00
15229;BME280;7717;47.792;12.076;2023-03-31T11:56:06;94973.63;;;14.52;100.00
15229;BME280;7717;47.792;12.076;2023-03-31T11:58:37;94991.34;;;14.14;100.00
15229;BME280;7717;47.792;12.076;2023-03-31T12:01:29;94995.13;;;13.58;100.00
15229;BME280;7717;47.792;12.076;2023-03-31T12:04:08;95045.63;;;12.82;100.00
15229;BME280;7717;47.792;12.076;2023-03-31T12:06:39;95094.06;;;11.40;100.00
15229;BME280;7717;47.792;12.076;2023-03-31T12:09:14;95110.28;;;10.67;100.00
15229;BME280;7717;47.792;12.076;2023-03-31T12:12:09;95131.44;;;9.91;100.00
15229;BME280;7717;47.792;12.076;2023-03-31T12:14:42;95043.28;;;9.68;100.00
15229;BME280;7717;47.792;12.076;2023-03-31T12:17:12;94962.88;;;9.85;100.00
15229;BME280;7717;47.792;12.076;2023-03-31T12:19:46;94982.25;;;9.95;100.00
15229;BME280;7717;47.792;12.076;2023-03-31T12:22:23;94979.16;;;10.20;100.00
15229;BME280;7717;47.792;12.076;2023-03-31T12:24:51;94962.88;;;10.24;100.00
15229;BME280;7717;47.792;12.076;2023-03-31T12:27:26;94968.72;;;10.29;100.00
15229;BME280;7717;47.792;12.076;2023-03-31T12:30:00;94959.44;;;10.61;100.00
15229;BME280;7717;47.792;12.076;2023-03-31T12:32:29;94954.63;;;10.85;100.00
15229;BME280;7717;47.792;12.076;2023-03-31T12:35:05;94930.66;;;11.19;100.00
15229;BME280;7717;47.792;12.076;2023-03-31T12:37:55;94923.97;;;11.14;100.00
15229;BME280;7717;47.792;12.076;2023-03-31T12:40:36;94923.88;;;10.86;100.00
15229;BME280;7717;47.792;12.076;2023-03-31T12:43:30;94925.03;;;11.06;100.00
15229;BME280;7717;47.792;12.076;2023-03-31T12:48:57;94908.09;;;11.63;100.00
15229;BME280;7717;47.792;12.076;2023-03-31T12:54:27;94879.63;;;11.72;100.00
15229;BME280;7717;47.792;12.076;2023-03-31T12:57:12;94888.53;;;11.30;100.00
15229;BME280;7717;47.792;12.076;2023-03-31T12:59:44;94897.72;;;11.36;100.00
15229;BME280;7717;47.792;12.076;2023-03-31T13:04:39;94901.19;;;11.35;100.00
15229;BME280;7717;47.792;12.076;2023-03-31T13:07:12;94904.09;;;11.23;100.00
15229;BME280;7717;47.792;12.076;2023-03-31T13:09:43;94907.53;;;11.22;100.00
15229;BME280;7717;47.792;12.076;2023-03-31T13:12:15;94907.00;;;11.10;100.00
15229;BME280;7717;47.792;12.076;2023-03-31T13:14:43;94887.03;;;11.22;100.00
15229;BME280;7717;47.792;12.076;2023-03-31T13:17:25;94887.50;;;11.36;100.00
15229;BME280;7717;47.792;12.076;2023-03-31T13:19:52;94898.84;;;11.27;100.00
15229;BME280;7717;47.792;12.076;2023-03-31T13:22:36;94923.97;;;11.14;100.00
15229;BME280;7717;47.792;12.076;2023-03-31T13:28:08;95053.19;;;10.65;100.00
15229;BME280;7717;47.792;12.076;2023-03-31T13:33:05;95123.44;;;9.13;100.00
15229;BME280;7717;47.792;12.076;2023-03-31T13:35:36;95063.41;;;8.89;100.00
15229;BME280;7717;47.792;12.076;2023-03-31T13:50:16;94980.94;;;8.88;100.00
15229;BME280;7717;47.792;12.076;2023-03-31T13:53:02;94969.69;;;8.98;100.00
15229;BME280;7717;47.792;12.076;2023-03-31T14:04:21;94952.13;;;9.28;100.00
15229;BME280;7717;47.792;12.076;2023-03-31T14:06:57;94952.75;;;9.40;100.00
15229;BME280;7717;47.792;12.076;2023-03-31T14:09:30;94939.81;;;9.49;100.00
15229;BME280;7717;47.792;12.076;2023-03-31T14:12:02;94923.03;;;9.76;100.00
15229;BME280;7717;47.792;12.076;2023-03-31T14:14:43;94901.50;;;9.88;100.00
15229;BME280;7717;47.792;12.076;2023-03-31T14:17:09;94891.06;;;9.97;100.00
15229;BME280;7717;47.792;12.076;2023-03-31T14:22:29;94892.22;;;10.20;100.00
15229;BME280;7717;47.792;12.076;2023-03-31T14:25:17;94900.06;;;10.12;100.00
15229;BME280;7717;47.792;12.076;2023-03-31T14:38:52;94906.06;;;10.82;100.00
15229;BME280;7717;47.792;12.076;2023-03-31T14:41:21;94919.53;;;10.55;100.00
15229;BME280;7717;47.792;12.076;2023-03-31T14:43:54;94943.34;;;10.92;100.00
15229;BME280;7717;47.792;12.076;2023-03-31T14:46:21;94974.31;;;10.81;100.00
15229;BME280;7717;47.792;12.076;2023-03-31T14:48:49;94951.56;;;11.03;100.00
15229;BME280;7717;47.792;12.076;2023-03-31T14:51:25;94937.81;;;11.07;100.00
15229;BME280;7717;47.792;12.076;2023-03-31T14:54:01;94940.91;;;11.19;100.00
15229;BME280;7717;47.792;12.076;2023-03-31T14:56:39;94971.81;;;11.12;100.00
15229;BME280;7717;47.792;12.076;2023-03-31T14:59:06;94956.63;;;11.38;100.00
15229;BME280;7717;47.792;12.076;2023-03-31T15:01:34;94935.03;;;11.46;100.00
15229;BME280;7717;47.792;12.076;2023-03-31T15:04:11;94920.19;;;11.58;100.00
15229;BME280;7717;47.792;12.076;2023-03-31T15:06:39;94954.31;;;11.60;100.00
15229;BME280;7717;47.792;12.076;2023-03-31T15:09:06;94943.59;;;11.75;100.00
15229;BME280;7717;47.792;12.076;2023-03-31T15:11:34;94927.94;;;14.35;100.00